Temp     Hi    Low   Out    Dew  Wind  Wind   Wind    Hi    Hi   Wind   Heat    THW   THSW                Rain  Solar   Solar Hi Solar   UV    UV    Hi     Heat    Cool    In     In    In     In           Wind  Wind    ISS   Arc.
  Date    Time     Out   Temp   Temp   Hum    Pt. Speed   Dir    Run Speed   Dir  Chill  Index  Index  Index   Bar    Rain  Rate   Rad.  Energy    Rad.  Index  Dose   UV     D-D     D-D    Temp   Hum    Dew   Heat     ET   Samp   Tx   Recept  Int.
---------------------------------------------------------------------------------------------------------------------------------------------------------------------------------------------------------------------------------------------------------
 4/24/17 12:30a   49.9   50.4   49.7    46   29.9   5.0     W   2.50  15.0     W   48.1   48.6   46.8   41.7  29.928  0.00  0.00     0     0.00      0     0.0  0.00   0.0   0.315   0.000   70.9    46   49.1   69.1   0.000   674    2    100.0   30 
 4/24/17  1:00a   49.1   50.0   49.1    51   31.7   3.0     W   1.50  13.0     W   48.6   47.9   47.4   42.4  29.925  0.00  0.00     0     0.00      0     0.0  0.00   0.0   0.331   0.000   70.6    46   48.8   68.7   0.002   681    2    100.0   30 
 4/24/17  1:30a   47.2   49.1   47.0    57   32.7   2.0     W   1.00  10.0     W   47.2   46.3   46.3   41.4  29.914  0.00  0.00     0     0.00      0     0.0  0.00   0.0   0.371   0.000   70.1    46   48.4   68.0   0.000   684    2    100.0   30 
 4/24/17  2:00a   45.5   47.3   45.5    61   32.8   0.0   ---   0.00   0.0   ---   45.5   44.7   44.7   39.8  29.890  0.00  0.00     0     0.00      0     0.0  0.00   0.0   0.406   0.000   69.7    46   48.0   67.7   0.001   673    2    100.0   30 
 4/24/17  2:30a   44.2   45.6   44.1    65   33.2   0.0     W   0.00  10.0     W   44.2   43.5   43.5   38.6  29.897  0.00  0.00     0     0.00      0     0.0  0.00   0.0   0.433   0.000   69.4    46   47.7   67.5   0.000   682    2    100.0   30 
 4/24/17  3:00a   47.3   47.6   44.3    62   34.9   6.0     W   3.00  15.0     W   44.5   46.5   43.7   38.8  29.895  0.00  0.00     0     0.00      0     0.0  0.00   0.0   0.369   0.000   69.0    45   46.8   67.1   0.001   686    2    100.0   30 
 4/24/17  3:30a   44.7   47.3   44.7    69   35.1   2.0   NNW   1.00  11.0   NNW   44.7   44.2   44.2   39.4  29.897  0.00  0.00     0     0.00      0     0.0  0.00   0.0   0.423   0.000   68.7    45   46.5   66.8   0.000   671    2    100.0   30 
 4/24/17  4:00a   44.9   44.9   43.7    68   35.0   1.0   NNE   0.50  10.0   ESE   44.9   44.3   44.3   39.4  29.899  0.00  0.00     0     0.00      0     0.0  0.00   0.0   0.419   0.000   68.4    45   46.2   66.6   0.001   684    2    100.0   30 
 4/24/17  4:30a   42.4   45.1   42.4    79   36.3   1.0   SSW   0.50   5.0   SSW   42.4   42.1   42.1   37.3  29.891  0.00  0.00     0     0.00      0     0.0  0.00   0.0   0.471   0.000   68.2    45   46.0   66.4   0.000   682    2    100.0   30 
 4/24/17  5:00a   46.4   46.4   42.4    65   35.3   2.0   WNW   1.00  16.0   WNW   46.4   45.7   45.7   40.9  29.890  0.00  0.00     0     0.00      0     0.0  0.00   0.0   0.387   0.000   67.9    45   45.8   66.1   0.001   675    2    100.0   30 
 4/24/17  5:30a   48.2   48.2   46.4    58   34.1   7.0   WNW   3.50  23.0   WNW   45.0   47.3   44.1   39.3  29.877  0.00  0.00     0     0.00      0     0.0  0.00   0.0   0.350   0.000   67.5    45   45.4   65.6   0.000   685    2    100.0   30 
 4/24/17  6:00a   48.1   48.5   48.1    57   33.6  12.0    NW   6.00  25.0   NNW   42.1   47.2   41.2   37.2  29.880  0.00  0.00     0     0.00      0     0.0  0.00   0.0   0.352   0.000   67.2    44   44.5   65.2   0.003   652    2     97.8   30 
 4/24/17  6:30a   47.9   48.2   47.9    60   34.7  14.0   WNW   7.00  26.0   WNW   41.1   47.1   40.3   36.6  29.881  0.00  0.00     2     0.09     12     0.0  0.00   0.0   0.356   0.000   66.9    44   44.3   64.9   0.000   637    2     95.5   30 
 4/24/17  7:00a   47.5   47.9   47.3    64   35.9  14.0   WNW   7.00  26.0   WNW   40.7   46.8   40.0   36.8  29.878  0.00  0.00    29     1.25     42     0.0  0.00   0.0   0.365   0.000   66.7    44   44.1   64.6   0.004   684    2    100.0   30 
 4/24/17  7:30a   47.7   47.8   47.3    64   36.1  15.0   WNW   7.50  29.0   WNW   40.6   47.0   39.9   39.5  29.886  0.00  0.00    55     2.37     76     0.0  0.00   0.0   0.360   0.000   67.0    44   44.4   65.0   0.000   673    2    100.0   30 
 4/24/17  8:00a   47.7   47.8   47.3    67   37.3  15.0   WNW   7.50  34.0   WNW   40.6   47.1   40.0   42.3  29.894  0.00  0.00   156     6.71    236     0.6  0.10   0.9   0.360   0.000   68.2    44   45.4   66.3   0.005   682    2    100.0   30 
 4/24/17  8:30a   48.9   48.9   47.4    63   36.9  14.0   WNW   7.00  26.0   WNW   42.3   48.2   41.6   46.6  29.913  0.00  0.00   311    13.37    376     1.2  0.19   1.6   0.335   0.000   68.9    44   46.1   66.9   0.000   684    2    100.0   30 
 4/24/17  9:00a   49.5   49.5   48.6    64   37.8  17.0   WNW   8.50  30.0   WNW   42.1   48.9   41.5   47.0  29.907  0.00  0.00   420    18.06    503     2.0  0.32   2.6   0.323   0.000   70.4    44   47.4   68.2   0.010   673    2    100.0   30 
 4/24/17  9:30a   50.4   50.5   49.5    63   38.3  15.0   WNW   7.50  25.0     W   43.6   49.7   42.9   49.2  29.909  0.00  0.00   501    21.55    573     2.8  0.45   3.7   0.304   0.000   70.4    43   46.8   68.1   0.000   683    2    100.0   30 
 4/24/17 10:00a   51.5   51.5   50.3    63   39.3  15.0   WNW   7.50  27.0     W   44.9   50.7   44.1   50.6  29.912  0.00  0.00   638    27.44    722     4.3  0.69   5.1   0.281   0.000   70.2    43   46.6   67.9   0.014   679    2    100.0   30 
 4/24/17 10:30a   50.0   51.7   50.0    68   39.8  17.0   WNW   8.50  28.0   WNW   42.6   49.5   42.1   48.4  29.908  0.00  0.00   724    31.14    793     5.5  0.88   6.2   0.313   0.000   70.4    45   48.0   68.3   0.000   679    2    100.0   30 
 4/24/17 11:00a   52.3   52.4   50.0    59   38.4  16.0    NW   8.00  28.0   WNW   45.5   51.2   44.4   50.6  29.911  0.00  0.00   783    33.67    853     6.8  1.09   7.3   0.265   0.000   71.2    44   48.2   69.3   0.018   683    2    100.0   30 
 4/24/17 11:30a   53.5   53.9   52.1    61   40.4  18.0   WNW   9.00  29.0   WNW   46.3   52.4   45.2   51.4  29.908  0.00  0.00   865    37.20    925     8.1  1.30   8.7   0.240   0.000   71.8    45   49.3   70.3   0.000   672    2    100.0   30 
 4/24/17 12:00p   54.8   55.0   53.5    55   38.9  19.0   WNW   9.50  31.0   WNW   47.5   53.3   46.0   52.2  29.911  0.00  0.00   924    39.74    954     9.1  1.46   9.6   0.213   0.000   71.8    44   48.7   70.2   0.022   686    2    100.0   30 
 4/24/17 12:30p   53.2   54.7   53.2    51   35.5  18.0   WNW   9.00  31.0   WNW   45.9   51.6   44.3   50.5  29.907  0.00  0.00   947    40.73   1007     9.6  1.54  10.1   0.246   0.000   71.8    44   48.7   70.2   0.000   682    2    100.0   30 
 4/24/17  1:00p   55.2   55.5   52.8    49   36.4  18.0    NW   9.00  30.0   WNW   48.2   53.3   46.3   52.4  29.903  0.00  0.00   943    40.55   1018     9.7  1.56  10.3   0.204   0.000   71.9    43   48.2   70.3   0.024   674    2    100.0   30 
 4/24/17  1:30p   54.9   55.6   54.1    46   34.5  20.0    NW  10.00  38.0   NNW   47.4   52.9   45.4   51.5  29.902  0.00  0.00   958    41.20   1009     9.7  1.56  10.0   0.210   0.000   73.0    42   48.5   71.9   0.000   685    2    100.0   30 
 4/24/17  2:00p   56.3   56.3   54.4    47   36.3  20.0    NW  10.00  33.0    NW   49.0   54.2   46.9   53.2  29.904  0.00  0.00   934    40.17   1072     9.2  1.48  10.1   0.181   0.000   72.8    41   47.7   71.5   0.026   676    2    100.0   30 
 4/24/17  2:30p   55.7   56.4   55.1    46   35.2  20.0    NW  10.00  35.0   NNW   48.3   53.6   46.2   53.1  29.890  0.00  0.00   938    40.34   1002     8.6  1.38   9.2   0.194   0.000   72.3    41   47.3   70.7   0.000   678    2    100.0   30 
 4/24/17  3:00p   56.9   57.0   55.5    46   36.3  18.0    NW   9.00  29.0    NW   50.2   54.8   48.1   55.4  29.888  0.00  0.00   870    37.41    991     7.4  1.19   8.5   0.169   0.000   72.3    40   46.6   70.6   0.025   685    2    100.0   30 
 4/24/17  3:30p   57.2   58.3   56.9    47   37.1  20.0   WNW  10.00  38.0   WNW   50.0   55.1   47.9   54.4  29.884  0.00  0.00   750    32.25    930     5.7  0.92   6.9   0.162   0.000   73.0    39   46.6   71.6   0.000   672    2    100.0   30 
 4/24/17  4:00p   56.1   57.2   55.7    50   37.7  19.0   WNW   9.50  33.0   WNW   49.0   54.2   47.1   53.7  29.867  0.00  0.00   654    28.13    823     4.2  0.67   5.5   0.185   0.000   73.1    40   47.3   71.8   0.021   685    2    100.0   30 
 4/24/17  4:30p   55.7   56.8   55.7    50   37.3  19.0   WNW   9.50  31.0   WNW   48.5   53.8   46.6   52.8  29.865  0.00  0.00   541    23.27    791     3.2  0.51   4.5   0.194   0.000   73.0    40   47.2   71.7   0.000   680    2    100.0   30 
 4/24/17  5:00p   54.2   55.6   54.2    54   37.9  17.0    NW   8.50  31.0   WNW   47.3   52.7   45.8   49.0  29.869  0.00  0.00   223     9.59    515     1.9  0.31   2.6   0.225   0.000   72.8    40   47.1   71.4   0.014   676    2    100.0   30 
 4/24/17  5:30p   53.2   54.2   53.2    60   39.7  20.0   WNW  10.00  35.0   WNW   45.4   52.1   44.3   45.1  29.866  0.00  0.00   104     4.47    148     1.0  0.16   1.2   0.246   0.000   72.6    41   47.5   71.1   0.000   686    2    100.0   30 
 4/24/17  6:00p   52.7   53.2   52.7    63   40.5  20.0   WNW  10.00  38.0   WNW   44.9   51.8   44.0   43.8  29.868  0.00  0.00    56     2.41    100     0.1  0.02   0.7   0.256   0.000   72.6    41   47.5   71.1   0.007   674    2    100.0   30 
 4/24/17  6:30p   52.3   52.7   52.3    67   41.7  17.0   WNW   8.50  38.0     W   45.2   51.6   44.5   42.3  29.872  0.00  0.00    26     1.12     44     0.0  0.00   0.0   0.265   0.000   72.6    42   48.2   71.2   0.000   679    2    100.0   30 
 4/24/17  7:00p   51.9   52.3   51.9    69   42.0  21.0   WNW  10.50  35.0   WNW   43.8   51.3   43.2   41.2  29.866  0.00  0.00    24     1.03     32     0.0  0.00   0.0   0.273   0.000   72.3    42   47.9   70.8   0.005   685    2    100.0   30 
 4/24/17  7:30p   51.5   51.9   51.5    66   40.5  18.0   WNW   9.00  34.0   WNW   44.1   50.8   43.4   40.9  29.860  0.00  0.00     9     0.39     21     0.0  0.00   0.0   0.281   0.000   72.4    42   48.0   70.9   0.000   671    2    100.0   30 
 4/24/17  8:00p   50.8   51.5   50.8    69   41.0  18.0    NW   9.00  35.0   NNW   43.3   50.3   42.8   40.2  29.876  0.00  0.00     0     0.00      0     0.0  0.00   0.0   0.296   0.000   72.4    42   48.0   70.9   0.004   685    2    100.0   30 
 4/24/17  8:30p   50.3   50.8   50.3    71   41.3  21.0   WNW  10.50  39.0   WNW   41.9   49.9   41.5   39.1  29.873  0.00  0.00     0     0.00      0     0.0  0.00   0.0   0.306   0.000   72.1    43   48.4   70.6   0.000   683    2    100.0   30 
 4/24/17  9:00p   50.0   50.3   50.0    70   40.6  21.0   WNW  10.50  37.0   WNW   41.6   49.6   41.2   38.8  29.893  0.00  0.00     0     0.00      0     0.0  0.00   0.0   0.313   0.000   72.4    45   49.9   71.2   0.004   673    2    100.0   30 
 4/24/17  9:30p   49.6   50.0   49.6    70   40.2  21.0   WNW  10.50  35.0   WNW   41.2   49.2   40.8   38.4  29.890  0.00  0.00     0     0.00      0     0.0  0.00   0.0   0.321   0.000   73.0    45   50.4   72.1   0.000   642    2     96.3   30 
 4/24/17 10:00p   49.5   49.6   49.5    68   39.4  19.0   WNW   9.50  30.0   WNW   41.5   49.0   41.0   38.5  29.880  0.00  0.00     0     0.00      0     0.0  0.00   0.0   0.323   0.000   73.6    44   50.3   72.8   0.004   640    2     96.0   30 
 4/24/17 10:30p   48.5   49.5   48.5    75   40.9  16.0   WNW   8.00  37.0   WNW   41.2   48.2   40.9   38.2  29.887  0.00  0.00     0     0.00      0     0.0  0.00   0.0   0.344   0.000   73.8    42   49.3   72.9   0.000   678    2    100.0   30 
 4/24/17 11:00p   47.4   48.5   47.4    77   40.6  14.0   WNW   7.00  22.0     W   40.5   47.2   40.3   37.4  29.899  0.00  0.00     0     0.00      0     0.0  0.00   0.0   0.367   0.000   73.8    42   49.3   72.9   0.003   682    2    100.0   30 
 4/24/17 11:30p   47.0   47.6   46.9    76   39.8  18.0   WNW   9.00  34.0   WNW   38.9   46.7   38.6   36.0  29.879  0.00  0.00     0     0.00      0     0.0  0.00   0.0   0.375   0.000   73.0    41   47.9   71.8   0.000   676    2    100.0   30 
 4/25/17 12:00a   46.9   47.1   46.7    76   39.7  21.0   WNW  10.50  34.0   NNW   38.1   46.6   37.8   35.4  29.885  0.00  0.00     0     0.00      0     0.0  0.00   0.0   0.377   0.000   72.3    41   47.3   70.7   0.003   680    2    100.0   30 
 4/25/17 12:30a   46.4   47.0   46.4    81   40.9  17.0   WNW   8.50  34.0   WNW   38.5   46.2   38.3   35.6  29.899  0.00  0.00     0     0.00      0     0.0  0.00   0.0   0.387   0.000   71.8    41   46.8   69.9   0.000   669    2    100.0   30 
 4/25/17  1:00a   46.1   46.5   46.1    81   40.6  19.0   WNW   9.50  38.0   WNW   37.6   45.9   37.4   34.9  29.897  0.00  0.00     0     0.00      0     0.0  0.00   0.0   0.394   0.000   71.2    42   46.9   69.1   0.002   646    2     96.9   30 
 4/25/17  1:30a   45.1   46.1   45.1    85   40.9  18.0   WNW   9.00  35.0   WNW   36.8   45.0   36.7   34.1  29.897  0.00  0.00     0     0.00      0     0.0  0.00   0.0   0.415   0.000   70.7    42   46.5   68.4   0.000   684    2    100.0   30 
 4/25/17  2:00a   44.9   45.2   44.9    87   41.3  17.0   WNW   8.50  34.0   WNW   36.8   44.9   36.8   34.1  29.881  0.00  0.00     0     0.00      0     0.0  0.00   0.0   0.419   0.000   70.2    42   46.0   67.8   0.002   679    2    100.0   30 
 4/25/17  2:30a   44.5   45.0   44.5    87   40.9  17.0   WNW   8.50  33.0     W   36.3   44.5   36.3   33.6  29.878  0.00  0.00     0     0.00      0     0.0  0.00   0.0   0.427   0.000   69.9    42   45.8   67.4   0.000   675    2    100.0   30 
 4/25/17  3:00a   44.2   44.6   44.2    89   41.2  18.0   WNW   9.00  33.0   WNW   35.7   44.3   35.8   33.2  29.879  0.00  0.00     0     0.00      0     0.0  0.00   0.0   0.433   0.000   69.4    42   45.3   67.1   0.001   684    2    100.0   30 
 4/25/17  3:30a   44.4   44.4   44.2    87   40.8  17.0   WNW   8.50  33.0   WNW   36.2   44.4   36.2   33.5  29.875  0.00  0.00     0     0.00      0     0.0  0.00   0.0   0.429   0.000   69.0    42   44.9   66.8   0.000   678    2    100.0   30 
 4/25/17  4:00a   44.1   44.4   44.1    87   40.5  18.0   WNW   9.00  37.0   WNW   35.6   44.1   35.6   33.0  29.876  0.00  0.00     0     0.00      0     0.0  0.00   0.0   0.435   0.000   68.7    42   44.7   66.5   0.001   678    2    100.0   30 
 4/25/17  4:30a   44.0   44.1   43.9    86   40.1  19.0   WNW   9.50  33.0   WNW   35.3   43.9   35.2   32.7  29.874  0.00  0.00     0     0.00      0     0.0  0.00   0.0   0.438   0.000   68.4    42   44.4   66.2   0.000   650    2     97.5   30 
 4/25/17  5:00a   43.6   44.0   43.6    87   40.0  14.0   WNW   7.00  27.0   WNW   36.3   43.6   36.3   33.4  29.871  0.00  0.00     0     0.00      0     0.0  0.00   0.0   0.446   0.000   68.0    42   44.0   65.8   0.001   659    2     98.8   30 
 4/25/17  5:30a   43.0   43.6   43.0    89   40.0  14.0   WNW   7.00  27.0   WNW   35.6   43.0   35.6   32.7  29.877  0.00  0.00     0     0.00      0     0.0  0.00   0.0   0.458   0.000   67.7    42   43.8   65.5   0.000   682    2    100.0   30 
 4/25/17  6:00a   43.1   43.2   42.9    88   39.8  16.0   WNW   8.00  32.0   WNW   35.0   43.1   35.0   32.3  29.875  0.00  0.00     0     0.00      0     0.0  0.00   0.0   0.456   0.000   67.4    43   44.1   65.3   0.001   686    2    100.0   30 
 4/25/17  6:30a   43.0   43.3   43.0    88   39.7  16.0   WNW   8.00  27.0   WNW   34.9   43.0   34.9   32.2  29.891  0.00  0.00     1     0.04      5     0.0  0.00   0.0   0.458   0.000   67.0    43   43.8   64.9   0.000   669    2    100.0   30 
 4/25/17  7:00a   43.3   43.3   42.9    88   40.0  15.0   WNW   7.50  26.0   WNW   35.6   43.3   35.6   33.0  29.896  0.00  0.00    13     0.56     28     0.0  0.00   0.0   0.452   0.000   66.7    43   43.5   64.5   0.001   685    2    100.0   30 
 4/25/17  7:30a   43.4   43.4   43.3    88   40.1  18.0   WNW   9.00  33.0   WNW   34.8   43.4   34.8   34.3  29.908  0.00  0.00    48     2.06     88     0.0  0.00   0.0   0.450   0.000   66.6    43   43.4   64.4   0.000   682    2    100.0   30 
 4/25/17  8:00a   44.2   44.2   43.4    84   39.7  18.0   WNW   9.00  32.0   WNW   35.7   44.1   35.6   36.2  29.913  0.00  0.00    90     3.87    130     0.4  0.06   0.7   0.433   0.000   67.5    43   44.2   65.4   0.002   674    2    100.0   30 
 4/25/17  8:30a   44.1   44.3   44.0    85   39.9  15.0   WNW   7.50  29.0   WNW   36.5   44.0   36.4   37.4  29.929  0.00  0.00   111     4.77    156     0.6  0.10   0.9   0.435   0.000   68.2    43   44.8   66.1   0.000   625    2     93.7   30 
 4/25/17  9:00a   45.2   45.2   44.0    83   40.3  13.0   WNW   6.50  29.0     N   38.4   45.1   38.3   40.0  29.942  0.00  0.00   147     6.32    181     1.1  0.18   1.5   0.412   0.000   69.2    43   45.7   67.0   0.003   681    2    100.0   30 
 4/25/17  9:30a   44.2   45.4   44.2    87   40.6   6.0   NNW   3.00  19.0   WNW   40.7   44.2   40.7   43.3  29.948  0.00  0.00   181     7.78    341     1.4  0.22   2.0   0.433   0.000   70.6    43   47.0   68.4   0.000   674    2    100.0   30 
 4/25/17 10:00a   44.9   44.9   43.6    89   41.9   7.0   NNW   3.50  15.0   NNW   41.1   45.0   41.2   46.9  29.956  0.00  0.00   339    14.58    865     3.3  0.53   5.8   0.419   0.000   70.7    44   47.7   68.6   0.006   676    2    100.0   30 
 4/25/17 10:30a   43.7   45.1   43.6    90   41.0   7.0   NNW   3.50  13.0   NNW   39.6   43.8   39.7   44.3  29.966  0.00  0.00   306    13.16    483     3.3  0.53   5.9   0.444   0.000   70.9    44   47.9   68.9   0.000   635    2     95.2   30 
 4/25/17 11:00a   43.9   44.4   43.6    88   40.6   9.0   NNW   4.50  16.0   NNW   38.7   43.9   38.7   44.0  29.979  0.00  0.00   380    16.34    513     4.1  0.66   6.6   0.440   0.000   70.9    44   47.9   68.9   0.007   638    2     95.7   30 
 4/25/17 11:30a   47.1   47.1   43.8    81   41.6  11.0   NNW   5.50  21.0   NNW   41.4   46.9   41.2   47.9  29.982  0.00  0.00   526    22.62    983     6.8  1.09  10.9   0.373   0.000   71.4    44   48.3   69.6   0.000   683    2    100.0   30 
 4/25/17 12:00p   47.2   47.5   46.1    78   40.7  14.0   NNW   7.00  25.0   NNW   40.3   47.0   40.1   47.4  29.990  0.00  0.00   724    31.14    988     8.3  1.33  10.9   0.371   0.000   72.3    43   48.5   70.9   0.013   677    2    100.0   30 
 4/25/17 12:30p   47.8   48.1   46.7    78   41.3  11.0   NNW   5.50  20.0     N   42.3   47.6   42.1   49.7  30.004  0.00  0.00   631    27.14   1106     7.9  1.27  11.6   0.358   0.000   71.9    43   48.2   70.3   0.000   676    2    100.0   30 
 4/25/17  1:00p   46.6   47.8   46.5    79   40.4   9.0   NNW   4.50  16.0   NNW   41.9   46.4   41.7   48.4  29.972  0.00  0.00   495    21.29    643     5.9  0.95  10.8   0.383   0.000   71.9    44   48.8   70.4   0.012   686    2    100.0   30 
 4/25/17  1:30p   50.1   50.1   46.6    73   41.8  11.0   NNW   5.50  20.0   NNW   44.9   49.8   44.6   52.7  29.971  0.00  0.00   949    40.81   1181     9.7  1.56  11.6   0.310   0.000   72.6    43   48.8   71.3   0.000   680    2    100.0   30 
 4/25/17  2:00p   51.9   52.1   50.1    69   42.0  11.0    NW   5.50  20.0   NNW   47.0   51.3   46.4   55.6  29.974  0.00  0.00   995    42.79   1118     9.7  1.56  10.9   0.273   0.000   73.6    44   50.3   72.8   0.019   674    2    100.0   30 
 4/25/17  2:30p   52.2   53.1   51.8    64   40.4  13.0   NNW   6.50  22.0   NNW   46.4   51.3   45.5   54.2  29.963  0.00  0.00   949    40.81    988     8.9  1.43   9.4   0.267   0.000   73.8    44   50.5   73.1   0.000   686    2    100.0   30 
 4/25/17  3:00p   54.4   55.3   52.2    54   38.1  14.0    NW   7.00  24.0   NNW   48.5   52.9   47.0   55.8  29.969  0.00  0.00   912    39.22    965     7.7  1.24   8.5   0.221   0.000   73.6    43   49.7   72.7   0.021   681    2    100.0   30 
 4/25/17  3:30p   53.7   55.0   53.7    52   36.5  15.0    NW   7.50  28.0    NW   47.4   52.1   45.8   52.7  29.962  0.00  0.00   709    30.49   1007     5.6  0.90   7.0   0.235   0.000   73.3    43   49.4   72.3   0.000   674    2    100.0   30 
 4/25/17  4:00p   54.2   54.4   53.1    51   36.5  16.0    NW   8.00  26.0   NNW   47.6   52.5   45.9   52.6  29.951  0.00  0.00   627    26.96    800     4.5  0.72   5.4   0.225   0.000   73.1    43   49.3   72.1   0.018   685    2    100.0   30 
 4/25/17  4:30p   54.0   56.0   53.9    53   37.2  12.0    NW   6.00  26.0   NNW   48.9   52.5   47.4   56.3  29.947  0.00  0.00   599    25.76    744     3.6  0.58   4.6   0.229   0.000   72.8    43   49.0   71.6   0.000   677    2    100.0   30 
 4/25/17  5:00p   54.2   54.9   54.0    50   35.9  13.0    NW   6.50  25.0    NW   48.6   52.5   46.9   55.2  29.949  0.00  0.00   503    21.63    596     2.4  0.39   3.0   0.225   0.000   72.6    43   48.8   71.3   0.015   680    2    100.0   30 
 4/25/17  5:30p   52.8   54.5   52.7    53   36.1  15.0    NW   7.50  28.0   WNW   46.4   51.4   45.0   50.7  29.957  0.00  0.00   336    14.45    485     1.5  0.24   2.0   0.254   0.000   72.4    43   48.6   71.0   0.000   684    2    100.0   30 
 4/25/17  6:00p   52.9   53.4   52.8    53   36.2  18.0   WNW   9.00  30.0   WNW   45.6   51.4   44.1   47.6  29.957  0.00  0.00   233    10.02    334     0.9  0.14   1.2   0.252   0.000   72.3    43   48.5   70.9   0.011   671    2    100.0   30 
 4/25/17  6:30p   52.4   53.0   52.3    54   36.2  15.0   WNW   7.50  28.0     W   45.9   51.1   44.6   43.9  29.965  0.00  0.00   175     7.53    221     0.3  0.05   0.6   0.262   0.000   72.4    44   49.3   71.1   0.000   681    2    100.0   30 
 4/25/17  7:00p   51.3   52.4   51.3    57   36.6  15.0   WNW   7.50  28.0     W   44.7   50.3   43.7   41.5  29.969  0.00  0.00    82     3.53    132     0.0  0.00   0.0   0.285   0.000   72.6    46   50.6   71.6   0.007   676    2    100.0   30 
 4/25/17  7:30p   50.6   51.3   50.6    59   36.8  13.0   WNW   6.50  26.0   WNW   44.6   49.7   43.7   40.4  29.977  0.00  0.00    26     1.12     46     0.0  0.00   0.0   0.300   0.000   72.1    46   50.2   70.8   0.000   678    2    100.0   30 
 4/25/17  8:00p   49.8   50.6   49.8    63   37.7  12.0   WNW   6.00  23.0   NNW   44.1   49.1   43.4   39.5  29.986  0.00  0.00     0     0.00      5     0.0  0.00   0.0   0.317   0.000   71.9    46   50.0   70.6   0.004   685    2    100.0   30 
 4/25/17  8:30p   49.4   49.9   49.3    67   38.9  12.0   WNW   6.00  22.0   WNW   43.6   48.9   43.1   39.2  29.995  0.00  0.00     0     0.00      0     0.0  0.00   0.0   0.325   0.000   73.5    43   49.6   72.6   0.000   671    2    100.0   30 
 4/25/17  9:00p   49.4   49.6   49.2    66   38.5  13.0   WNW   6.50  24.0   WNW   43.2   48.8   42.6   38.9  30.009  0.00  0.00     0     0.00      0     0.0  0.00   0.0   0.325   0.000   73.1    44   49.9   72.2   0.003   682    2    100.0   30 
 4/25/17  9:30p   49.3   49.4   49.0    65   38.0  11.0   WNW   5.50  21.0   WNW   44.0   48.7   43.4   39.4  30.026  0.00  0.00     0     0.00      0     0.0  0.00   0.0   0.327   0.000   72.4    44   49.3   71.1   0.000   686    2    100.0   30 
 4/25/17 10:00p   49.3   49.3   48.9    64   37.6   7.0   WNW   3.50  19.0   WNW   46.4   48.7   45.8   41.2  30.042  0.00  0.00     0     0.00      0     0.0  0.00   0.0   0.327   0.000   72.3    44   49.2   71.0   0.002   671    2    100.0   30 
 4/25/17 10:30p   48.7   49.4   48.7    66   37.8   5.0    NW   2.50  15.0    NW   46.7   48.1   46.1   41.4  30.049  0.00  0.00     0     0.00      0     0.0  0.00   0.0   0.340   0.000   73.1    43   49.3   72.1   0.000   683    2    100.0   30